createdAt,value
2022-12-31T00:00:00.890Z,982.7109
2022-12-31T00:01:01.033Z,982.5407
2022-12-31T00:02:01.312Z,982.5709
2022-12-31T00:03:00.555Z,982.448
2022-12-31T00:04:00.507Z,982.3465
2022-12-31T00:05:00.666Z,982.6664
2022-12-31T00:06:00.804Z,982.5674
2022-12-31T00:07:00.954Z,982.5961
2022-12-31T00:08:01.185Z,982.7816
2022-12-31T00:09:01.262Z,982.6181
2022-12-31T00:10:00.393Z,982.7042
2022-12-31T00:11:00.541Z,982.5321
2022-12-31T00:12:00.681Z,982.5607
2022-12-31T00:13:00.859Z,982.6736
2022-12-31T00:14:00.975Z,982.6884
2022-12-31T00:15:01.123Z,982.5894
2022-12-31T00:16:00.255Z,982.5875
2022-12-31T00:17:00.456Z,982.5855
2022-12-31T00:18:00.579Z,982.5655
2022-12-31T00:19:00.719Z,982.6649
2022-12-31T00:20:00.868Z,982.6429
2022-12-31T00:21:01.013Z,982.7997
2022-12-31T00:22:01.155Z,982.6664
2022-12-31T00:23:00.347Z,982.8437
2022-12-31T00:24:00.456Z,982.709
2022-12-31T00:25:00.605Z,982.7003
2022-12-31T00:26:00.763Z,982.5773
2022-12-31T00:27:00.917Z,982.7896
2022-12-31T00:28:01.156Z,982.729
2022-12-31T00:29:01.224Z,982.9131
2022-12-31T00:30:04.492Z,982.781
2022-12-31T00:31:00.531Z,982.8164
2022-12-31T00:32:00.661Z,982.8164
2022-12-31T00:33:00.817Z,982.9045
2022-12-31T00:34:01.007Z,982.7896
2022-12-31T00:35:01.100Z,982.9245
2022-12-31T00:36:01.244Z,983.2361
2022-12-31T00:37:00.390Z,983.0063
2022-12-31T00:38:00.556Z,982.7566
2022-12-31T00:39:00.709Z,983.0063
2022-12-31T00:40:00.856Z,982.9049
2022-12-31T00:41:01.010Z,983.0992
2022-12-31T00:42:01.151Z,982.8929
2022-12-31T00:43:00.320Z,983.0417
2022-12-31T00:44:00.460Z,983.0638
2022-12-31T00:45:00.601Z,983.2361
2022-12-31T00:46:00.772Z,983.1059
2022-12-31T00:47:00.954Z,983.1834
2022-12-31T00:48:01.046Z,983.1834
2022-12-31T00:49:01.242Z,983.1126
2022-12-31T00:50:00.355Z,983.1126
2022-12-31T00:51:00.501Z,983.1126
2022-12-31T00:52:00.651Z,983.1561
2022-12-31T00:53:00.807Z,983.1834
2022-12-31T00:54:00.968Z,983.0532
2022-12-31T00:55:01.127Z,983.0073
2022-12-31T00:56:01.260Z,983.1528
2022-12-31T00:57:00.401Z,983.0384
2022-12-31T00:58:00.552Z,983.048
2022-12-31T00:59:00.722Z,983.1313
2022-12-31T01:00:00.853Z,983.1174
2022-12-31T01:01:01.113Z,983.1768
2022-12-31T01:02:01.294Z,983.3473
2022-12-31T01:03:00.450Z,983.2443
2022-12-31T01:04:00.458Z,983.2223
2022-12-31T01:05:00.578Z,983.3493
2022-12-31T01:06:00.740Z,983.2812
2022-12-31T01:07:00.909Z,983.3861
2022-12-31T01:08:01.036Z,983.5011
2022-12-31T01:09:01.214Z,983.3252
2022-12-31T01:10:00.323Z,983.3866
2022-12-31T01:11:00.457Z,983.3713
2022-12-31T01:12:00.642Z,983.4475
2022-12-31T01:13:00.749Z,983.3052
2022-12-31T01:14:00.920Z,983.3186
2022-12-31T01:15:01.086Z,983.3728
2022-12-31T01:16:01.247Z,983.3479
2022-12-31T01:17:00.371Z,983.3555
2022-12-31T01:18:00.532Z,983.3719
2022-12-31T01:19:00.652Z,983.3555
2022-12-31T01:20:00.838Z,983.4964
2022-12-31T01:21:00.980Z,983.4964
2022-12-31T01:22:01.107Z,983.5827
2022-12-31T01:23:01.249Z,983.7303
2022-12-31T01:24:00.387Z,983.684
2022-12-31T01:25:00.539Z,983.5321
2022-12-31T01:26:00.720Z,983.6471
2022-12-31T01:27:00.843Z,983.6116
2022-12-31T01:28:00.987Z,983.799
2022-12-31T01:29:01.129Z,983.764
2022-12-31T01:30:00.270Z,983.6283
2022-12-31T01:31:00.501Z,983.6471
2022-12-31T01:32:00.568Z,983.9194
2022-12-31T01:33:00.718Z,983.7689
2022-12-31T01:34:00.847Z,983.6251
2022-12-31T01:35:00.998Z,983.8331
2022-12-31T01:36:01.164Z,983.7267
2022-12-31T01:37:00.291Z,983.7909
2022-12-31T01:38:00.445Z,983.7163
2022-12-31T01:39:00.607Z,983.6794
2022-12-31T01:40:00.756Z,983.6808
2022-12-31T01:41:00.907Z,983.8044
2022-12-31T01:42:01.037Z,983.6808
2022-12-31T01:43:01.196Z,983.7469
2022-12-31T01:44:00.332Z,983.8025
2022-12-31T01:45:00.474Z,983.5657
2022-12-31T01:46:00.763Z,983.8197
2022-12-31T01:47:00.807Z,983.7589
2022-12-31T01:48:00.918Z,983.8847
2022-12-31T01:49:01.080Z,983.6708
2022-12-31T01:50:01.209Z,983.7383
2022-12-31T01:51:00.362Z,983.7944
2022-12-31T01:52:00.547Z,983.7589
2022-12-31T01:53:00.688Z,983.7589
2022-12-31T01:54:00.805Z,983.874
2022-12-31T01:55:00.956Z,984.0573
2022-12-31T01:56:01.117Z,983.7696
2022-12-31T01:57:01.243Z,984.0133
2022-12-31T01:58:00.408Z,983.8172
2022-12-31T01:59:00.562Z,983.931
2022-12-31T02:00:00.693Z,983.8001
2022-12-31T02:01:00.941Z,983.7295
2022-12-31T02:02:01.100Z,983.7983
2022-12-31T02:03:01.184Z,983.8356
2022-12-31T02:04:00.313Z,984.1014
2022-12-31T02:05:00.448Z,983.971
2022-12-31T02:06:00.568Z,983.7983
2022-12-31T02:07:00.714Z,983.7119
2022-12-31T02:08:00.880Z,983.6831
2022-12-31T02:09:01.045Z,983.8338
2022-12-31T02:10:01.186Z,983.6678
2022-12-31T02:11:00.320Z,984.0232
2022-12-31T02:12:00.469Z,983.6225
2022-12-31T02:13:00.648Z,983.614
2022-12-31T02:14:00.774Z,983.5968
2022-12-31T02:15:00.923Z,983.5172
2022-12-31T02:16:01.109Z,983.4294
2022-12-31T02:17:01.223Z,983.4731
2022-12-31T02:18:00.390Z,983.4865
2022-12-31T02:19:00.514Z,983.4884
2022-12-31T02:20:00.684Z,983.5815
2022-12-31T02:21:00.808Z,983.6305
2022-12-31T02:22:00.965Z,983.5949
2022-12-31T02:23:01.100Z,983.7609
2022-12-31T02:24:01.257Z,983.679
2022-12-31T02:25:00.399Z,983.5634
2022-12-31T02:26:00.547Z,983.5889
2022-12-31T02:27:00.714Z,983.5485
2022-12-31T02:28:00.844Z,983.4702
2022-12-31T02:29:00.988Z,983.4577
2022-12-31T02:30:01.137Z,983.4482
2022-12-31T02:31:00.305Z,983.5701
2022-12-31T02:32:00.467Z,983.5278
2022-12-31T02:33:02.665Z,983.5067
2022-12-31T02:34:00.743Z,983.4333
2022-12-31T02:35:00.902Z,983.535
2022-12-31T02:36:01.042Z,983.5139
2022-12-31T02:37:01.206Z,983.499
2022-12-31T02:38:00.333Z,983.5067
2022-12-31T02:39:00.478Z,983.6021
2022-12-31T02:40:00.630Z,983.5566
2022-12-31T02:41:00.775Z,983.5346
2022-12-31T02:42:00.958Z,983.4563
2022-12-31T02:43:01.086Z,983.5197
2022-12-31T02:44:01.227Z,983.5485
2022-12-31T02:45:00.395Z,983.4275
2022-12-31T02:46:00.521Z,983.5139
2022-12-31T02:47:00.678Z,983.4496
2022-12-31T02:48:00.817Z,983.584
2022-12-31T02:49:00.980Z,983.6182
2022-12-31T02:50:01.178Z,983.4804
2022-12-31T02:51:00.262Z,983.5606
2022-12-31T02:52:00.413Z,983.7333
2022-12-31T02:53:00.566Z,983.7909
2022-12-31T02:54:00.713Z,983.6987
2022-12-31T02:55:00.883Z,983.9349
2022-12-31T02:56:01.014Z,983.5875
2022-12-31T02:57:01.156Z,983.7369
2022-12-31T02:58:00.321Z,983.5199
2022-12-31T02:59:00.435Z,983.5654
2022-12-31T03:00:00.619Z,983.601
2022-12-31T03:01:00.797Z,983.5636
2022-12-31T03:02:00.968Z,983.5482
2022-12-31T03:03:01.072Z,983.7076
2022-12-31T03:04:01.185Z,983.4772
2022-12-31T03:05:00.349Z,983.6792
2022-12-31T03:06:00.487Z,983.601
2022-12-31T03:07:00.639Z,983.7431
2022-12-31T03:08:00.784Z,983.577
2022-12-31T03:09:00.929Z,983.6683
2022-12-31T03:10:01.111Z,983.5887
2022-12-31T03:11:01.223Z,983.6463
2022-12-31T03:12:00.376Z,983.6742
2022-12-31T03:13:00.524Z,983.5598
2022-12-31T03:14:00.667Z,983.6242
2022-12-31T03:15:00.860Z,983.7601
2022-12-31T03:16:01.034Z,983.6449
2022-12-31T03:17:01.130Z,983.5143
2022-12-31T03:18:00.256Z,983.3514
2022-12-31T03:19:00.409Z,983.3702
2022-12-31T03:20:00.565Z,983.425
2022-12-31T03:21:00.731Z,983.5317
2022-12-31T03:22:00.847Z,983.4994
2022-12-31T03:23:01.002Z,983.5431
2022-12-31T03:24:01.154Z,983.5062
2022-12-31T03:25:00.303Z,983.5845
2022-12-31T03:26:00.472Z,983.62
2022-12-31T03:27:00.612Z,983.5336
2022-12-31T03:28:00.755Z,983.5524
2022-12-31T03:29:00.933Z,983.5807
2022-12-31T03:30:01.056Z,983.7965
2022-12-31T03:31:01.326Z,983.7739
2022-12-31T03:32:00.340Z,983.6965
2022-12-31T03:33:00.515Z,983.5236
2022-12-31T03:34:00.674Z,983.5505
2022-12-31T03:35:00.779Z,983.5063
2022-12-31T03:36:00.927Z,983.5982
2022-12-31T03:37:01.075Z,983.5405
2022-12-31T03:38:01.223Z,983.7356
2022-12-31T03:39:00.388Z,983.5063
2022-12-31T03:40:00.508Z,983.6712
2022-12-31T03:41:00.669Z,983.6338
2022-12-31T03:42:00.820Z,983.6103
2022-12-31T03:43:00.980Z,983.617
2022-12-31T03:44:01.133Z,983.6203
2022-12-31T03:45:00.265Z,983.5405
2022-12-31T03:46:00.446Z,983.454
2022-12-31T03:47:00.562Z,983.6338
2022-12-31T03:48:00.720Z,983.644
2022-12-31T03:49:00.891Z,983.4435
2022-12-31T03:50:01.007Z,983.5017
2022-12-31T03:51:01.152Z,983.471
2022-12-31T03:52:00.294Z,983.4931
2022-12-31T03:53:00.457Z,983.4402
2022-12-31T03:54:00.629Z,983.3825
2022-12-31T03:55:00.755Z,983.5335
2022-12-31T03:56:00.902Z,983.4695
2022-12-31T03:57:01.050Z,983.3691
2022-12-31T03:58:01.218Z,983.5782
2022-12-31T03:59:00.408Z,983.6133
2022-12-31T04:00:00.524Z,983.5354
2022-12-31T04:01:00.752Z,983.5877
2022-12-31T04:02:00.886Z,983.5454
2022-12-31T04:03:01.006Z,983.5963
2022-12-31T04:04:01.118Z,983.3829
2022-12-31T04:05:01.247Z,983.5796
2022-12-31T04:06:00.413Z,983.4931
2022-12-31T04:07:00.541Z,983.3931
2022-12-31T04:08:00.696Z,983.5238
2022-12-31T04:09:00.858Z,983.3963
2022-12-31T04:10:01.005Z,983.5405
2022-12-31T04:11:01.141Z,983.3675
2022-12-31T04:12:00.286Z,983.3724
2022-12-31T04:13:00.431Z,983.4694
2022-12-31T04:14:00.596Z,983.6712
2022-12-31T04:15:00.771Z,983.6217
2022-12-31T04:16:00.951Z,983.4487
2022-12-31T04:17:01.033Z,983.4506
2022-12-31T04:18:01.193Z,983.428
2022-12-31T04:19:00.352Z,983.4352
2022-12-31T04:20:00.496Z,983.6135
2022-12-31T04:21:00.666Z,983.3829
2022-12-31T04:22:00.799Z,983.5405
2022-12-31T04:23:00.951Z,983.5419
2022-12-31T04:24:01.089Z,983.4694
2022-12-31T04:25:01.238Z,983.4554
2022-12-31T04:26:00.416Z,983.4694
2022-12-31T04:27:07.068Z,983.481
2022-12-31T04:28:00.685Z,983.5593
2022-12-31T04:29:00.840Z,983.5526
2022-12-31T04:30:00.999Z,983.6454
2022-12-31T04:31:01.144Z,983.5098
2022-12-31T04:32:00.334Z,983.4199
2022-12-31T04:33:00.420Z,983.6742
2022-12-31T04:34:00.578Z,983.4405
2022-12-31T04:35:00.727Z,983.4689
2022-12-31T04:36:00.888Z,983.454
2022-12-31T04:37:01.016Z,983.3299
2022-12-31T04:38:01.160Z,983.5524
2022-12-31T04:39:00.309Z,983.3572
2022-12-31T04:40:05.754Z,983.6389
2022-12-31T04:41:00.647Z,983.4492
2022-12-31T04:42:00.765Z,983.391
2022-12-31T04:43:00.928Z,983.291
2022-12-31T04:44:01.054Z,983.53
2022-12-31T04:45:01.235Z,983.2891
2022-12-31T04:46:00.380Z,983.3555
2022-12-31T04:47:00.507Z,983.4492
2022-12-31T04:48:00.678Z,983.4568
2022-12-31T04:49:00.816Z,983.2909
2022-12-31T04:50:00.989Z,983.3794
2022-12-31T04:51:01.112Z,983.5049
2022-12-31T04:52:01.263Z,983.4252
2022-12-31T04:53:00.422Z,983.4828
2022-12-31T04:54:00.545Z,983.5405
2022-12-31T04:55:00.721Z,983.481
2022-12-31T04:56:00.858Z,983.5963
2022-12-31T04:57:01.013Z,983.4708
2022-12-31T04:58:01.180Z,983.527
2022-12-31T04:59:00.306Z,983.5238
2022-12-31T05:00:00.445Z,983.6219
2022-12-31T05:01:00.726Z,983.6998
2022-12-31T05:02:00.874Z,983.6475
2022-12-31T05:03:00.946Z,983.7643
2022-12-31T05:04:01.058Z,983.6831
2022-12-31T05:05:01.190Z,983.7119
2022-12-31T05:06:00.341Z,983.775
2022-12-31T05:07:00.493Z,983.8597
2022-12-31T05:08:00.651Z,983.6934
2022-12-31T05:09:00.776Z,983.7629
2022-12-31T05:10:00.913Z,983.7373
2022-12-31T05:11:01.063Z,983.7643
2022-12-31T05:12:01.215Z,983.5475
2022-12-31T05:13:00.358Z,983.4628
2022-12-31T05:14:00.511Z,983.4758
2022-12-31T05:15:00.648Z,983.4402
2022-12-31T05:16:00.837Z,983.5763
2022-12-31T05:17:01.019Z,983.5321
2022-12-31T05:18:01.142Z,983.6286
2022-12-31T05:19:01.247Z,983.6661
2022-12-31T05:20:00.462Z,983.5354
2022-12-31T05:21:00.549Z,983.6489
2022-12-31T05:22:00.700Z,983.7205
2022-12-31T05:23:00.862Z,983.7287
2022-12-31T05:24:01.021Z,983.7594
2022-12-31T05:25:01.163Z,983.6679
2022-12-31T05:26:00.290Z,983.6661
2022-12-31T05:27:00.436Z,983.7373
2022-12-31T05:28:00.564Z,983.4796
2022-12-31T05:29:00.748Z,983.5065
2022-12-31T05:30:00.865Z,983.5763
2022-12-31T05:31:01.081Z,983.6138
2022-12-31T05:32:01.174Z,983.5642
2022-12-31T05:33:00.316Z,983.6084
2022-12-31T05:34:00.491Z,983.5849
2022-12-31T05:35:00.606Z,983.6575
2022-12-31T05:36:00.766Z,983.5507
2022-12-31T05:37:00.904Z,983.5982
2022-12-31T05:38:01.059Z,983.527
2022-12-31T05:39:01.226Z,983.6558
2022-12-31T05:40:00.338Z,983.7117
2022-12-31T05:41:00.521Z,983.7017
2022-12-31T05:42:00.623Z,983.6847
2022-12-31T05:43:00.769Z,983.6526
2022-12-31T05:44:00.939Z,983.6391
2022-12-31T05:45:01.081Z,983.6828
2022-12-31T05:46:01.294Z,983.6217
2022-12-31T05:47:00.373Z,983.8356
2022-12-31T05:48:00.530Z,983.817
2022-12-31T05:49:00.689Z,983.8847
2022-12-31T05:50:00.829Z,983.6828
2022-12-31T05:51:00.942Z,983.8847
2022-12-31T05:52:01.099Z,983.827
2022-12-31T05:53:01.247Z,983.7896
2022-12-31T05:54:00.425Z,983.8901
2022-12-31T05:55:00.540Z,983.9121
2022-12-31T05:56:00.682Z,983.9423
2022-12-31T05:57:00.843Z,984.1343
2022-12-31T05:58:00.985Z,983.8815
2022-12-31T05:59:01.144Z,983.9392
2022-12-31T06:00:00.287Z,983.8954
2022-12-31T06:01:00.487Z,983.9306
2022-12-31T06:02:00.597Z,983.9531
2022-12-31T06:03:00.850Z,983.8157
2022-12-31T06:04:00.991Z,983.8796
2022-12-31T06:05:01.032Z,983.8666
2022-12-31T06:06:01.191Z,984.0058
2022-12-31T06:07:00.326Z,983.977
2022-12-31T06:08:00.475Z,983.977
2022-12-31T06:09:00.629Z,983.8003
2022-12-31T06:10:00.775Z,984.0635
2022-12-31T06:11:00.912Z,984.0455
2022-12-31T06:12:01.059Z,983.857
2022-12-31T06:13:01.233Z,983.894
2022-12-31T06:14:00.386Z,983.8286
2022-12-31T06:15:00.511Z,983.9354
2022-12-31T06:16:00.695Z,983.9995
2022-12-31T06:17:00.815Z,983.8191
2022-12-31T06:18:00.942Z,983.9354
2022-12-31T06:19:01.119Z,984.0351
2022-12-31T06:20:01.429Z,983.9332
2022-12-31T06:21:00.394Z,983.8294
2022-12-31T06:22:00.543Z,983.8231
2022-12-31T06:23:00.700Z,983.818
2022-12-31T06:24:00.853Z,983.855
2022-12-31T06:25:00.989Z,984.0202
2022-12-31T06:26:01.153Z,983.9335
2022-12-31T06:27:00.290Z,983.8388
2022-12-31T06:28:00.453Z,983.9804
2022-12-31T06:29:00.622Z,983.975
2022-12-31T06:30:00.834Z,984.0035
2022-12-31T06:31:00.983Z,983.9457
2022-12-31T06:32:01.042Z,983.975
2022-12-31T06:33:01.199Z,983.9913
2022-12-31T06:34:00.346Z,984.049
2022-12-31T06:35:00.505Z,984.1262
2022-12-31T06:36:00.626Z,984.0906
2022-12-31T06:37:00.785Z,984.0779
2022-12-31T06:38:00.909Z,983.9335
2022-12-31T06:39:01.059Z,983.9457
2022-12-31T06:40:01.246Z,983.8595
2022-12-31T06:41:00.367Z,984.012
2022-12-31T06:42:00.509Z,983.9692
2022-12-31T06:43:00.731Z,983.8965
2022-12-31T06:44:00.813Z,984.0405
2022-12-31T06:45:00.971Z,984.1564
2022-12-31T06:46:01.199Z,984.049
2022-12-31T06:47:00.268Z,983.9913
2022-12-31T06:48:00.418Z,983.8388
2022-12-31T06:49:00.573Z,983.8595
2022-12-31T06:50:00.724Z,984.0224
2022-12-31T06:51:00.852Z,984.0093
2022-12-31T06:52:01.010Z,983.8919
2022-12-31T06:53:01.156Z,984.0039
2022-12-31T06:54:00.334Z,983.9182
2022-12-31T06:55:00.484Z,984.0148
2022-12-31T06:56:00.616Z,983.9796
2022-12-31T06:57:00.784Z,983.9281
2022-12-31T06:58:00.895Z,983.9724
2022-12-31T06:59:01.059Z,983.9624
2022-12-31T07:00:01.206Z,983.9994
2022-12-31T07:01:00.381Z,984.2512
2022-12-31T07:02:00.817Z,984.0148
2022-12-31T07:03:00.758Z,984.1167
2022-12-31T07:04:00.798Z,984.1898
2022-12-31T07:05:00.957Z,984.2223
2022-12-31T07:06:01.099Z,984.286
2022-12-31T07:07:01.266Z,984.3216
2022-12-31T07:08:00.392Z,984.4159
2022-12-31T07:09:00.539Z,984.4592
2022-12-31T07:10:00.702Z,984.3501
2022-12-31T07:11:00.831Z,984.2693
2022-12-31T07:12:00.999Z,984.2874
2022-12-31T07:13:01.201Z,984.2806
2022-12-31T07:14:00.315Z,984.4828
2022-12-31T07:15:00.446Z,984.3014
2022-12-31T07:16:00.644Z,984.3741
2022-12-31T07:17:00.748Z,984.3298
2022-12-31T07:18:00.936Z,984.4084
2022-12-31T07:19:01.059Z,984.337
2022-12-31T07:20:01.188Z,984.337
2022-12-31T07:21:00.342Z,984.3777
2022-12-31T07:22:00.481Z,984.5001
2022-12-31T07:23:00.664Z,984.3353
2022-12-31T07:24:00.802Z,984.3357
2022-12-31T07:25:00.921Z,984.1501
2022-12-31T07:26:01.062Z,984.3452
2022-12-31T07:27:01.221Z,984.3741
2022-12-31T07:28:00.386Z,984.385
2022-12-31T07:29:00.512Z,984.4716
2022-12-31T07:30:00.662Z,984.385
2022-12-31T07:31:00.885Z,984.3506
2022-12-31T07:32:01.000Z,984.2793
2022-12-31T07:33:01.135Z,984.4513
2022-12-31T07:34:00.293Z,984.3199
2022-12-31T07:35:00.410Z,984.3267
2022-12-31T07:36:00.565Z,984.4478
2022-12-31T07:37:00.756Z,984.4464
2022-12-31T07:38:00.877Z,984.6199
2022-12-31T07:39:01.026Z,984.5097
2022-12-31T07:40:01.179Z,984.5437
2022-12-31T07:41:05.492Z,984.5866
2022-12-31T07:42:00.496Z,984.4131
2022-12-31T07:43:00.617Z,984.5012
2022-12-31T07:44:00.792Z,984.4641
2022-12-31T07:45:00.895Z,984.5509
2022-12-31T07:46:01.047Z,984.7035
2022-12-31T07:47:01.237Z,984.5964
2022-12-31T07:48:02.658Z,984.5509
2022-12-31T07:49:00.497Z,984.7367
2022-12-31T07:50:00.633Z,984.7426
2022-12-31T07:51:00.781Z,984.8079
2022-12-31T07:52:00.954Z,984.8151
2022-12-31T07:53:01.117Z,984.7722
2022-12-31T07:54:01.236Z,984.7722
2022-12-31T07:55:00.383Z,984.6631
2022-12-31T07:56:00.559Z,984.7137
2022-12-31T07:57:00.691Z,984.878
2022-12-31T07:58:00.840Z,984.935
2022-12-31T07:59:00.966Z,984.941
2022-12-31T08:00:01.126Z,984.8316
2022-12-31T08:02:00.539Z,984.9422
2022-12-31T08:03:00.567Z,984.9546
2022-12-31T08:04:00.671Z,985.0766
2022-12-31T08:05:00.822Z,985.1911
2022-12-31T08:06:00.966Z,985.0039
2022-12-31T08:07:01.111Z,984.9639
2022-12-31T08:08:01.286Z,985.1886
2022-12-31T08:09:00.405Z,984.9597
2022-12-31T08:10:00.551Z,985.2119
2022-12-31T08:11:00.704Z,985.1886
2022-12-31T08:12:00.857Z,985.3043
2022-12-31T08:13:01.037Z,985.1886
2022-12-31T08:14:01.154Z,985.1553
2022-12-31T08:15:00.309Z,985.2119
2022-12-31T08:16:00.511Z,985.2626
2022-12-31T08:17:00.604Z,985.4068
2022-12-31T08:18:00.781Z,985.3153
2022-12-31T08:19:00.907Z,985.1758
2022-12-31T08:20:01.049Z,985.44
2022-12-31T08:21:01.188Z,985.2958
2022-12-31T08:22:00.339Z,985.3043
2022-12-31T08:23:00.472Z,985.2532
2022-12-31T08:24:00.649Z,985.36
2022-12-31T08:25:00.793Z,985.2626
2022-12-31T08:26:00.938Z,985.4068
2022-12-31T08:27:01.083Z,985.1417
2022-12-31T08:28:01.239Z,985.2272
2022-12-31T08:29:00.391Z,985.2175
2022-12-31T08:30:00.528Z,985.2077
2022-12-31T08:31:00.673Z,985.1362
2022-12-31T08:32:00.854Z,985.1362
2022-12-31T08:33:00.968Z,985.5018
2022-12-31T08:34:05.807Z,985.2865
2022-12-31T08:35:00.308Z,985.3001
2022-12-31T08:36:00.419Z,985.1771
2022-12-31T08:37:00.574Z,985.0341
2022-12-31T08:38:00.719Z,984.9184
2022-12-31T08:39:00.890Z,984.9239
2022-12-31T08:40:01.054Z,984.9899
2022-12-31T08:41:01.183Z,984.9239
2022-12-31T08:42:00.351Z,984.9222
2022-12-31T08:43:00.515Z,984.9086
2022-12-31T08:44:00.644Z,984.7941
2022-12-31T08:45:00.797Z,984.8839
2022-12-31T08:46:00.988Z,984.8414
2022-12-31T08:47:01.094Z,984.8839
2022-12-31T08:48:01.296Z,984.7873
2022-12-31T08:49:00.404Z,984.7945
2022-12-31T08:50:00.540Z,984.8298
2022-12-31T08:51:00.689Z,984.9184
2022-12-31T08:52:00.838Z,984.7313
2022-12-31T08:53:01.013Z,984.8728
2022-12-31T08:54:01.155Z,984.7915
2022-12-31T08:55:00.298Z,984.8575
2022-12-31T08:56:00.448Z,984.9443
2022-12-31T08:57:00.624Z,985.029
2022-12-31T08:58:00.751Z,984.9119
2022-12-31T08:59:00.896Z,984.8404
2022-12-31T09:00:01.057Z,985.0111
2022-12-31T09:01:01.263Z,985.0346
2022-12-31T09:02:00.472Z,984.9396
2022-12-31T09:03:00.502Z,985.0026
2022-12-31T09:04:00.652Z,985.1627
2022-12-31T09:05:00.811Z,985.0955
2022-12-31T09:06:00.930Z,985.2692
2022-12-31T09:07:01.105Z,985.1244
2022-12-31T09:08:01.252Z,985.3471
2022-12-31T09:09:00.387Z,985.2692
2022-12-31T09:10:00.552Z,985.2675
2022-12-31T09:11:00.675Z,985.2829
2022-12-31T09:12:00.835Z,985.0993
2022-12-31T09:13:00.998Z,985.2003
2022-12-31T09:14:01.143Z,985.475
2022-12-31T09:15:00.298Z,985.3744
2022-12-31T09:16:00.466Z,985.2292
2022-12-31T09:17:00.621Z,985.452
2022-12-31T09:18:00.738Z,985.4102
2022-12-31T09:19:00.897Z,985.2744
2022-12-31T09:20:01.047Z,985.3161
2022-12-31T09:21:01.217Z,985.4226
2022-12-31T09:22:00.347Z,985.351
2022-12-31T09:23:00.497Z,985.3004
2022-12-31T09:24:05.853Z,985.2425
2022-12-31T09:25:00.781Z,985.1833
2022-12-31T09:26:00.949Z,985.4077
2022-12-31T09:27:01.116Z,985.3651
2022-12-31T09:28:01.248Z,985.351
2022-12-31T09:29:00.373Z,985.3438
2022-12-31T09:30:00.542Z,985.2731
2022-12-31T09:31:00.694Z,985.1572
2022-12-31T09:32:00.906Z,985.3647
2022-12-31T09:33:01.628Z,985.2429
2022-12-31T09:34:01.106Z,985.1999
2022-12-31T09:36:00.365Z,985.1334
2022-12-31T09:37:00.561Z,985.1134
2022-12-31T09:38:00.676Z,985.2659
2022-12-31T09:39:00.823Z,985.193
2022-12-31T09:40:00.966Z,985.0703
2022-12-31T09:41:01.117Z,985.1134
2022-12-31T09:42:00.276Z,985.15
2022-12-31T09:43:00.456Z,985.3647
2022-12-31T09:44:01.392Z,985.2054
2022-12-31T09:45:00.730Z,985.318
2022-12-31T09:46:00.915Z,984.8969
2022-12-31T09:47:01.011Z,984.9549
2022-12-31T09:48:01.159Z,985.0337
2022-12-31T09:49:00.295Z,985.0128
2022-12-31T09:50:00.446Z,985.4096
2022-12-31T09:51:00.611Z,985.1134
2022-12-31T09:52:00.754Z,985.2558
2022-12-31T09:53:00.940Z,985.2558
2022-12-31T09:54:01.086Z,985.3057
2022-12-31T09:55:01.231Z,985.2187
2022-12-31T09:56:00.363Z,985.3449
2022-12-31T09:57:00.501Z,985.2171
2022-12-31T09:58:00.676Z,985.2891
2022-12-31T09:59:00.798Z,985.3808
2022-12-31T10:00:00.938Z,985.3957
2022-12-31T10:01:01.227Z,985.6042
2022-12-31T10:02:01.562Z,985.3932
2022-12-31T10:03:00.445Z,985.4222
2022-12-31T10:04:00.545Z,985.3979
2022-12-31T10:05:00.725Z,985.3745
2022-12-31T10:06:00.847Z,985.3745
2022-12-31T10:07:01.003Z,985.3523
2022-12-31T10:08:01.187Z,985.5042
2022-12-31T10:09:00.291Z,985.5167
2022-12-31T10:10:00.463Z,985.4172
2022-12-31T10:11:00.584Z,985.3438
2022-12-31T10:12:00.744Z,985.3511
2022-12-31T10:13:00.885Z,985.4586
2022-12-31T10:14:01.003Z,985.2965
2022-12-31T10:15:01.153Z,985.3814
2022-12-31T10:16:00.296Z,985.4547
2022-12-31T10:17:00.492Z,985.3187
2022-12-31T10:18:00.601Z,985.5345
2022-12-31T10:19:00.733Z,985.3536
2022-12-31T10:20:00.885Z,985.3523
2022-12-31T10:21:01.031Z,985.424
2022-12-31T10:22:01.182Z,985.4684
2022-12-31T10:23:00.347Z,985.4905
2022-12-31T10:24:00.479Z,985.366
2022-12-31T10:25:00.630Z,985.4381
2022-12-31T10:26:00.776Z,985.3729
2022-12-31T10:27:00.922Z,985.4684
2022-12-31T10:28:01.102Z,985.3814
2022-12-31T10:29:01.210Z,985.288
2022-12-31T10:30:00.370Z,985.4547
2022-12-31T10:31:00.583Z,985.6907
2022-12-31T10:32:00.671Z,985.4493
2022-12-31T10:33:00.843Z,985.5432
2022-12-31T10:34:01.031Z,985.413
2022-12-31T10:35:01.140Z,985.5376
2022-12-31T10:36:00.297Z,985.6081
2022-12-31T10:37:00.422Z,985.5291
2022-12-31T10:38:00.569Z,985.4425
2022-12-31T10:39:00.721Z,985.4698
2022-12-31T10:40:00.897Z,985.6008
2022-12-31T10:41:01.009Z,985.4421
2022-12-31T10:42:01.155Z,985.6508
2022-12-31T10:43:00.310Z,985.5351
2022-12-31T10:44:00.479Z,985.5057
2022-12-31T10:45:00.631Z,985.4574
2022-12-31T10:46:00.897Z,985.4586
2022-12-31T10:47:00.908Z,985.2906
2022-12-31T10:48:01.055Z,985.4771
2022-12-31T10:49:01.207Z,985.7004
2022-12-31T10:50:00.362Z,985.2728
2022-12-31T10:51:00.520Z,985.4477
2022-12-31T10:52:00.666Z,985.5113
2022-12-31T10:53:00.805Z,985.554
2022-12-31T10:54:00.997Z,985.4943
2022-12-31T10:55:01.234Z,985.3799
2022-12-31T10:56:01.299Z,985.4392
2022-12-31T10:57:00.415Z,985.5984
2022-12-31T10:58:04.232Z,985.4464
2022-12-31T10:59:00.691Z,985.3508
2022-12-31T11:00:00.862Z,985.4588
2022-12-31T11:01:01.163Z,985.4362
2022-12-31T11:02:01.297Z,985.3782
2022-12-31T11:03:00.396Z,985.2591
2022-12-31T11:04:00.448Z,985.4823
2022-12-31T11:05:00.612Z,985.4682
2022-12-31T11:06:00.741Z,985.554
2022-12-31T11:07:00.903Z,985.356
2022-12-31T11:08:01.065Z,985.4362
2022-12-31T11:09:01.214Z,985.2216
2022-12-31T11:10:00.363Z,985.4823
2022-12-31T11:11:00.507Z,985.3001
2022-12-31T11:12:00.637Z,985.2203
2022-12-31T11:13:00.789Z,985.2357
2022-12-31T11:14:00.954Z,985.184
2022-12-31T11:15:01.091Z,985.2985
2022-12-31T11:16:01.306Z,985.1452
2022-12-31T11:17:00.389Z,985.3177
2022-12-31T11:18:00.545Z,985.2306
2022-12-31T11:19:00.688Z,985.3194
2022-12-31T11:20:00.822Z,985.0952
2022-12-31T11:21:00.999Z,985.2199
2022-12-31T11:22:01.168Z,985.2203
2022-12-31T11:23:00.275Z,985.2985
2022-12-31T11:24:00.429Z,985.3177
2022-12-31T11:25:00.625Z,985.2818
2022-12-31T11:26:00.715Z,985.447
2022-12-31T11:27:00.866Z,985.418
2022-12-31T11:28:01.019Z,985.3582
2022-12-31T11:29:01.160Z,985.1657
2022-12-31T11:30:00.326Z,985.3599
2022-12-31T11:31:00.528Z,985.4454
2022-12-31T11:32:00.600Z,985.2221
2022-12-31T11:33:00.760Z,985.1931
2022-12-31T11:34:00.923Z,985.2802
2022-12-31T11:35:01.067Z,985.1298
2022-12-31T11:36:01.215Z,985.3906
2022-12-31T11:37:00.362Z,985.3975
2022-12-31T11:38:00.543Z,985.2763
2022-12-31T11:39:00.675Z,985.2101
2022-12-31T11:40:00.804Z,985.1964
2022-12-31T11:41:00.950Z,985.2472
2022-12-31T11:42:01.116Z,985.3765
2022-12-31T11:43:01.310Z,985.2694
2022-12-31T11:44:00.427Z,985.1298
2022-12-31T11:45:00.579Z,985.123
2022-12-31T11:46:00.778Z,985.3092
2022-12-31T11:47:00.872Z,985.2721
2022-12-31T11:48:31.032Z,985.2127